createdAt,value
2018-02-16T00:00:52.560Z,27.80
2018-02-16T00:03:22.373Z,32.58
2018-02-16T00:05:51.317Z,29.60
2018-02-16T00:08:21.312Z,30.33
2018-02-16T00:10:56.653Z,31.73
2018-02-16T00:13:25.631Z,31.10
2018-02-16T00:15:58.242Z,29.42
2018-02-16T00:18:33.953Z,30.02
2018-02-16T00:25:08.618Z,29.17
2018-02-16T00:27:55.380Z,28.62
2018-02-16T00:33:44.003Z,31.55
2018-02-16T00:36:13.199Z,31.05
2018-02-16T00:38:42.223Z,29.35
2018-02-16T00:41:12.641Z,30.67
2018-02-16T00:43:59.717Z,31.65
2018-02-16T00:46:29.508Z,30.30
2018-02-16T00:48:58.550Z,28.75
2018-02-16T00:51:27.476Z,29.45
2018-02-16T00:53:56.487Z,28.42
2018-02-16T00:56:27.476Z,29.20
2018-02-16T00:58:56.433Z,31.77
2018-02-16T01:01:26.668Z,30.95
2018-02-16T01:04:18.908Z,30.80
2018-02-16T01:07:04.414Z,29.02
2018-02-16T01:09:33.391Z,29.42
2018-02-16T01:12:02.354Z,32.10
2018-02-16T01:14:32.022Z,29.20
2018-02-16T01:17:00.946Z,30.10
2018-02-16T01:19:29.956Z,28.08
2018-02-16T01:21:59.658Z,28.75
2018-02-16T01:24:28.608Z,31.33
2018-02-16T01:26:57.583Z,30.27
2018-02-16T01:29:26.525Z,27.90
2018-02-16T01:31:55.473Z,28.58
2018-02-16T01:34:24.379Z,28.85
2018-02-16T01:36:53.304Z,30.20
2018-02-16T01:39:22.217Z,29.55
2018-02-16T01:41:51.886Z,30.98
2018-02-16T01:44:20.810Z,33.10
2018-02-16T01:46:50.500Z,30.75
2018-02-16T01:49:19.421Z,32.08
2018-02-16T01:51:49.453Z,32.72
2018-02-16T01:54:18.399Z,29.95
2018-02-16T01:56:47.407Z,32.58
2018-02-16T01:59:17.129Z,29.65
2018-02-16T02:01:46.829Z,32.35
2018-02-16T02:04:16.508Z,30.33
2018-02-16T02:06:45.448Z,29.92
2018-02-16T02:09:15.148Z,28.45
2018-02-16T02:11:44.832Z,31.05
2018-02-16T02:14:13.901Z,29.35
2018-02-16T02:16:42.837Z,32.17
2018-02-16T02:19:12.529Z,31.20
2018-02-16T02:21:41.436Z,29.75
2018-02-16T02:24:11.148Z,32.00
2018-02-16T02:26:40.840Z,30.40
2018-02-16T02:30:29.208Z,31.58
2018-02-16T02:32:58.893Z,29.58
2018-02-16T02:35:27.883Z,29.15
2018-02-16T02:37:56.815Z,30.98
2018-02-16T02:40:25.797Z,32.10
2018-02-16T02:42:55.521Z,33.38
2018-02-16T02:45:24.522Z,33.88
2018-02-16T02:47:53.501Z,33.10
2018-02-16T02:50:23.202Z,31.25
2018-02-16T02:52:52.904Z,35.05
2018-02-16T02:55:22.608Z,34.92
2018-02-16T02:57:54.527Z,34.25
2018-02-16T03:00:23.520Z,36.00
2018-02-16T03:02:52.465Z,32.45
2018-02-16T03:05:22.215Z,35.70
2018-02-16T03:07:51.428Z,33.67
2018-02-16T03:10:20.397Z,33.30
2018-02-16T03:12:49.318Z,34.22
2018-02-16T03:15:18.293Z,33.40
2018-02-16T03:17:47.222Z,33.95
2018-02-16T03:20:16.144Z,33.63
2018-02-16T03:23:48.355Z,33.60
2018-02-16T03:26:17.284Z,33.35
2018-02-16T03:28:46.968Z,32.35
2018-02-16T03:31:15.999Z,34.38
2018-02-16T03:33:45.688Z,33.10
2018-02-16T03:36:14.607Z,32.63
2018-02-16T03:38:44.393Z,33.17
2018-02-16T03:41:13.328Z,32.38
2018-02-16T03:43:42.224Z,33.65
2018-02-16T03:46:11.160Z,34.63
2018-02-16T03:48:40.200Z,33.38
2018-02-16T03:51:09.118Z,33.17
2018-02-16T03:53:38.037Z,33.58
2018-02-16T03:56:06.983Z,34.97
2018-02-16T03:58:35.969Z,34.20
2018-02-16T04:01:05.666Z,37.00
2018-02-16T04:03:35.337Z,33.90
2018-02-16T04:06:04.317Z,34.20
2018-02-16T04:08:33.272Z,34.75
2018-02-16T04:11:02.212Z,35.20
2018-02-16T04:13:31.187Z,34.92
2018-02-16T04:16:00.105Z,34.03
2018-02-16T04:18:29.064Z,31.42
2018-02-16T04:20:58.772Z,34.15
2018-02-16T04:23:27.728Z,31.02
2018-02-16T04:25:57.740Z,31.27
2018-02-16T04:28:27.568Z,33.55
2018-02-16T04:30:56.471Z,34.03
2018-02-16T04:33:25.410Z,34.28
2018-02-16T04:35:54.367Z,32.83
2018-02-16T04:38:23.316Z,34.40
2018-02-16T04:40:53.061Z,32.92
2018-02-16T04:43:21.982Z,32.72
2018-02-16T04:45:50.928Z,32.80
2018-02-16T04:48:19.873Z,33.17
2018-02-16T04:50:48.846Z,30.52
2018-02-16T04:53:17.822Z,31.20
2018-02-16T04:55:46.757Z,29.33
2018-02-16T04:58:15.684Z,30.65
2018-02-16T05:00:44.964Z,33.33
2018-02-16T05:03:14.649Z,30.67
2018-02-16T05:05:43.584Z,29.60
2018-02-16T05:08:12.565Z,29.90
2018-02-16T05:10:42.320Z,34.25
2018-02-16T05:13:11.280Z,36.25
2018-02-16T05:15:40.511Z,31.35
2018-02-16T05:18:09.437Z,30.40
2018-02-16T05:20:38.353Z,31.10
2018-02-16T05:23:07.304Z,32.40
2018-02-16T05:25:36.354Z,31.17
2018-02-16T05:28:06.183Z,29.98
2018-02-16T05:30:36.617Z,31.87
2018-02-16T05:33:05.532Z,32.45
2018-02-16T05:35:34.486Z,33.25
2018-02-16T05:38:03.424Z,34.42
2018-02-16T05:40:32.382Z,39.30
2018-02-16T05:43:02.115Z,36.95
2018-02-16T05:45:33.080Z,36.13
2018-02-16T05:48:02.824Z,36.10
2018-02-16T05:50:34.508Z,36.15
2018-02-16T05:53:03.518Z,33.92
2018-02-16T05:55:32.443Z,29.42
2018-02-16T05:58:02.213Z,31.23
2018-02-16T06:00:31.166Z,29.10
2018-02-16T06:03:00.157Z,26.92
2018-02-16T06:05:45.644Z,27.83
2018-02-16T06:11:06.467Z,25.10
2018-02-16T06:13:36.816Z,24.70
2018-02-16T06:16:12.907Z,28.62
2018-02-16T06:18:49.252Z,26.05
2018-02-16T06:21:19.496Z,26.40
2018-02-16T06:23:57.620Z,28.45
2018-02-16T06:29:13.320Z,29.73
2018-02-16T06:31:43.773Z,28.65
2018-02-16T06:34:18.285Z,31.12
2018-02-16T06:36:47.284Z,30.70
2018-02-16T06:39:17.124Z,29.25
2018-02-16T06:41:46.076Z,26.52
2018-02-16T06:44:15.016Z,29.75
2018-02-16T06:46:44.013Z,29.10
2018-02-16T06:49:12.945Z,25.55
2018-02-16T06:51:42.680Z,28.02
2018-02-16T06:54:11.733Z,28.20
2018-02-16T06:56:41.429Z,29.40
2018-02-16T06:59:11.218Z,29.42
2018-02-16T07:01:43.684Z,29.67
2018-02-16T07:04:13.233Z,28.90
2018-02-16T07:06:43.145Z,31.73
2018-02-16T07:09:13.262Z,28.05
2018-02-16T07:11:47.879Z,27.95
2018-02-16T07:14:16.922Z,28.58
2018-02-16T07:16:46.678Z,27.65
2018-02-16T07:19:15.645Z,30.62
2018-02-16T07:21:44.593Z,29.63
2018-02-16T07:24:14.391Z,25.65
2018-02-16T07:26:44.159Z,27.52
2018-02-16T07:29:13.192Z,29.08
2018-02-16T07:31:42.207Z,27.87
2018-02-16T07:34:11.961Z,26.05
2018-02-16T07:36:53.654Z,27.15
2018-02-16T07:39:22.660Z,27.15
2018-02-16T07:41:51.745Z,23.42
2018-02-16T07:44:20.995Z,23.35
2018-02-16T07:46:51.058Z,24.58
2018-02-16T07:49:20.064Z,24.15
2018-02-16T07:51:49.032Z,23.90
2018-02-16T07:54:18.044Z,22.45
2018-02-16T07:56:46.999Z,20.75
2018-02-16T07:59:16.016Z,26.00
2018-02-16T08:01:44.957Z,21.15
2018-02-16T08:04:15.073Z,21.87
2018-02-16T08:06:44.855Z,21.65
2018-02-16T08:09:13.898Z,22.58
2018-02-16T08:11:43.809Z,22.87
2018-02-16T08:14:12.844Z,22.95
2018-02-16T08:16:44.901Z,21.20
2018-02-16T08:19:13.887Z,21.33
2018-02-16T08:21:42.859Z,20.90
2018-02-16T08:24:13.024Z,19.30
2018-02-16T08:26:42.047Z,21.75
2018-02-16T08:29:11.881Z,20.83
2018-02-16T08:31:40.873Z,22.67
2018-02-16T08:34:09.952Z,20.08
2018-02-16T08:36:44.966Z,22.42
2018-02-16T08:39:13.943Z,21.25
2018-02-16T08:41:45.256Z,22.23
2018-02-16T08:44:15.022Z,21.20
2018-02-16T08:46:44.764Z,21.50
2018-02-16T08:49:14.647Z,21.27
2018-02-16T08:51:43.667Z,24.25
2018-02-16T08:54:12.722Z,21.37
2018-02-16T08:56:42.894Z,21.58
2018-02-16T08:59:12.177Z,23.85
2018-02-16T09:01:55.701Z,22.37
2018-02-16T09:04:25.625Z,23.30
2018-02-16T09:06:54.733Z,21.25
2018-02-16T09:09:24.029Z,22.30
2018-02-16T09:11:54.085Z,21.27
2018-02-16T09:14:23.921Z,21.80
2018-02-16T09:16:53.726Z,21.23
2018-02-16T09:19:23.878Z,21.08
2018-02-16T09:21:53.649Z,19.60
2018-02-16T09:24:22.878Z,20.45
2018-02-16T09:26:52.785Z,21.67
2018-02-16T09:29:22.789Z,22.23
2018-02-16T09:31:51.827Z,20.50
2018-02-16T09:34:22.144Z,22.00
2018-02-16T09:39:31.134Z,22.37
2018-02-16T09:42:00.172Z,20.15
2018-02-16T09:44:29.977Z,19.87
2018-02-16T09:46:59.172Z,19.77
2018-02-16T09:49:28.237Z,19.42
2018-02-16T09:51:57.255Z,20.27
2018-02-16T09:54:27.248Z,18.00
2018-02-16T09:56:56.296Z,19.80
2018-02-16T09:59:25.329Z,17.98
2018-02-16T10:01:54.323Z,19.02
2018-02-16T10:04:24.205Z,19.02
2018-02-16T10:06:54.222Z,20.15
2018-02-16T10:09:23.307Z,18.10
2018-02-16T10:11:52.477Z,18.23
2018-02-16T10:14:21.671Z,16.73
2018-02-16T10:16:54.585Z,16.90
2018-02-16T10:19:24.541Z,16.37
2018-02-16T10:21:54.496Z,16.85
2018-02-16T10:24:24.391Z,15.07
2018-02-16T10:29:28.788Z,15.25
2018-02-16T10:31:57.799Z,15.15
2018-02-16T10:34:26.904Z,14.73
2018-02-16T10:36:56.200Z,16.08
2018-02-16T10:39:25.412Z,15.30
2018-02-16T10:41:54.536Z,14.35
2018-02-16T10:44:24.340Z,13.65
2018-02-16T10:46:57.870Z,13.23
2018-02-16T10:49:26.932Z,14.40
2018-02-16T10:51:56.728Z,13.43
2018-02-16T10:54:25.783Z,14.57
2018-02-16T10:56:55.614Z,14.93
2018-02-16T10:59:24.620Z,12.80
2018-02-16T11:01:57.901Z,13.10
2018-02-16T11:04:31.329Z,13.02
2018-02-16T11:07:05.592Z,13.38
2018-02-16T11:09:34.604Z,12.95
2018-02-16T11:12:04.659Z,12.57
2018-02-16T11:14:34.434Z,12.93
2018-02-16T11:17:03.799Z,13.48
2018-02-16T11:19:33.705Z,12.27
2018-02-16T11:22:02.864Z,11.85
2018-02-16T11:24:32.769Z,11.88
2018-02-16T11:27:06.520Z,11.57
2018-02-16T11:29:36.341Z,10.73
2018-02-16T11:32:05.450Z,11.70
2018-02-16T11:34:34.467Z,11.38
2018-02-16T11:37:03.664Z,10.55
2018-02-16T11:39:33.598Z,10.48
2018-02-16T11:42:03.613Z,9.90
2018-02-16T11:44:33.470Z,10.50
2018-02-16T11:47:08.464Z,9.95
2018-02-16T11:49:37.466Z,11.68
2018-02-16T11:52:06.720Z,11.32
2018-02-16T11:54:35.749Z,11.52
2018-02-16T11:57:04.718Z,11.35
2018-02-16T11:59:34.738Z,10.00
2018-02-16T12:02:03.891Z,10.88
2018-02-16T12:04:33.849Z,10.63
2018-02-16T12:07:03.166Z,10.70
2018-02-16T12:09:32.286Z,11.80
2018-02-16T12:12:02.679Z,10.57
2018-02-16T12:14:31.735Z,10.43
2018-02-16T12:17:00.878Z,10.70
2018-02-16T12:19:30.061Z,11.10
2018-02-16T12:21:59.123Z,12.37
2018-02-16T12:24:28.198Z,11.85
2018-02-16T12:26:57.504Z,10.02
2018-02-16T12:29:26.792Z,12.43
2018-02-16T12:31:56.821Z,11.23
2018-02-16T12:35:01.266Z,12.60
2018-02-16T12:37:31.635Z,11.93
2018-02-16T12:40:01.490Z,8.73
2018-02-16T12:42:30.552Z,9.65
2018-02-16T12:44:59.578Z,11.05
2018-02-16T12:47:29.483Z,9.63
2018-02-16T12:49:59.454Z,8.45
2018-02-16T12:52:28.436Z,8.55
2018-02-16T12:55:12.084Z,8.82
2018-02-16T12:57:41.564Z,8.68
2018-02-16T13:00:11.059Z,8.80
2018-02-16T13:02:40.067Z,8.60
2018-02-16T13:05:09.112Z,6.57
2018-02-16T13:07:38.241Z,5.07
2018-02-16T13:10:07.326Z,5.40
2018-02-16T13:12:36.382Z,4.57
2018-02-16T13:15:05.726Z,5.12
2018-02-16T13:17:34.860Z,5.20
2018-02-16T13:20:04.118Z,4.75
2018-02-16T13:22:38.367Z,4.53
2018-02-16T13:25:08.255Z,4.47
2018-02-16T13:27:38.035Z,4.57
2018-02-16T13:30:07.204Z,3.87
2018-02-16T13:32:36.216Z,4.30
2018-02-16T13:35:06.909Z,3.95
2018-02-16T13:37:36.738Z,4.35
2018-02-16T13:40:05.897Z,5.00
2018-02-16T13:42:35.693Z,4.30
2018-02-16T13:45:05.485Z,4.70
2018-02-16T13:47:34.629Z,4.50
2018-02-16T13:50:03.814Z,5.25
2018-02-16T13:52:32.817Z,3.83
2018-02-16T13:55:01.865Z,3.70
2018-02-16T13:57:31.734Z,4.30
2018-02-16T14:00:00.857Z,4.12
2018-02-16T14:02:30.179Z,3.90
2018-02-16T14:04:59.963Z,5.50
2018-02-16T14:07:28.973Z,4.65
2018-02-16T14:09:58.757Z,4.12
2018-02-16T14:12:27.758Z,4.62
2018-02-16T14:14:56.812Z,4.47
2018-02-16T14:17:26.134Z,4.90
2018-02-16T14:19:55.172Z,4.30
2018-02-16T14:23:27.237Z,4.75
2018-02-16T14:25:56.229Z,4.93
2018-02-16T14:28:25.362Z,4.20
2018-02-16T14:30:54.485Z,4.45
2018-02-16T14:33:23.824Z,5.00
2018-02-16T14:35:54.469Z,4.25
2018-02-16T14:38:29.292Z,5.78
2018-02-16T14:40:59.327Z,5.28
2018-02-16T14:43:28.391Z,5.15
2018-02-16T14:45:57.369Z,4.25
2018-02-16T14:48:26.439Z,5.00
2018-02-16T14:52:16.969Z,4.85
2018-02-16T14:54:49.844Z,4.40
2018-02-16T14:57:24.435Z,5.00
2018-02-16T14:59:53.462Z,5.28
2018-02-16T15:02:26.468Z,4.70
2018-02-16T15:04:55.522Z,4.22
2018-02-16T15:07:24.575Z,5.70
2018-02-16T15:09:53.554Z,5.32
2018-02-16T15:12:40.808Z,4.93
2018-02-16T15:15:45.325Z,4.70
2018-02-16T15:18:15.177Z,4.70
2018-02-16T15:20:44.311Z,5.07
2018-02-16T15:23:13.423Z,5.20
2018-02-16T15:25:44.151Z,6.12
2018-02-16T15:28:13.565Z,7.57
2018-02-16T15:30:42.663Z,6.47
2018-02-16T15:33:12.586Z,7.80
2018-02-16T15:35:42.494Z,6.20
2018-02-16T15:38:16.067Z,7.45
2018-02-16T15:40:45.991Z,7.12
2018-02-16T15:43:16.462Z,7.00
2018-02-16T15:45:45.933Z,6.55
2018-02-16T15:48:15.064Z,7.28
2018-02-16T15:50:44.119Z,6.87
2018-02-16T15:53:13.998Z,7.07
2018-02-16T15:55:44.384Z,7.72
2018-02-16T15:58:14.232Z,7.90
2018-02-16T16:00:43.374Z,8.05
2018-02-16T16:03:13.284Z,8.18
2018-02-16T16:05:48.512Z,7.15
2018-02-16T16:12:58.081Z,9.40
2018-02-16T16:15:27.167Z,8.82
2018-02-16T16:17:56.938Z,8.95
2018-02-16T16:20:26.717Z,8.60
2018-02-16T16:22:56.492Z,8.45
2018-02-16T16:25:25.783Z,8.95
2018-02-16T16:28:00.860Z,8.57
2018-02-16T16:30:30.629Z,10.10
2018-02-16T16:35:43.990Z,10.40
2018-02-16T16:38:12.990Z,11.27
2018-02-16T16:40:42.032Z,10.18
2018-02-16T16:43:11.182Z,10.98
2018-02-16T16:45:44.399Z,12.43
2018-02-16T16:48:14.771Z,10.75
2018-02-16T16:50:45.097Z,10.40
2018-02-16T16:53:14.491Z,10.77
2018-02-16T16:55:43.501Z,11.52
2018-02-16T16:58:13.980Z,11.90
2018-02-16T17:00:43.859Z,11.95
2018-02-16T17:03:12.955Z,12.32
2018-02-16T17:05:42.009Z,12.15
2018-02-16T17:08:11.877Z,11.95
2018-02-16T17:10:41.698Z,11.63
2018-02-16T17:13:10.836Z,12.20
2018-02-16T17:15:39.979Z,11.27
2018-02-16T17:18:10.178Z,12.63
2018-02-16T17:20:40.094Z,12.90
2018-02-16T17:23:14.787Z,13.05
2018-02-16T17:25:50.266Z,12.18
2018-02-16T17:28:37.746Z,12.63
2018-02-16T17:31:07.018Z,12.50
2018-02-16T17:33:37.732Z,12.63
2018-02-16T17:36:16.141Z,12.13
2018-02-16T17:38:54.341Z,13.35
2018-02-16T17:41:25.164Z,11.57
2018-02-16T17:43:54.263Z,12.35
2018-02-16T17:46:28.594Z,12.63
2018-02-16T17:49:05.528Z,12.05
2018-02-16T17:51:49.874Z,13.05
2018-02-16T17:54:23.222Z,12.25
2018-02-16T17:57:05.496Z,11.68
2018-02-16T17:59:39.303Z,12.18
2018-02-16T18:02:08.997Z,12.35
2018-02-16T18:04:59.703Z,13.32
2018-02-16T18:07:30.381Z,13.13
2018-02-16T18:10:17.609Z,14.75
2018-02-16T18:12:48.170Z,12.05
2018-02-16T18:15:21.645Z,12.25
2018-02-16T18:18:02.834Z,17.42
2018-02-16T18:20:36.945Z,14.05
2018-02-16T18:23:09.005Z,13.25
2018-02-16T18:25:45.246Z,13.65
2018-02-16T18:28:14.809Z,13.73
2018-02-16T18:31:46.349Z,12.88
2018-02-16T18:34:20.063Z,21.90
2018-02-16T18:36:50.924Z,18.62
2018-02-16T18:39:29.248Z,17.17
2018-02-16T18:42:02.985Z,18.83
2018-02-16T18:44:39.497Z,19.02
2018-02-16T18:47:08.811Z,16.60
2018-02-16T18:49:42.933Z,16.77
2018-02-16T18:52:12.080Z,16.77
2018-02-16T18:54:42.730Z,14.75
2018-02-16T18:57:11.719Z,13.68
2018-02-16T18:59:41.469Z,15.02
2018-02-16T19:02:10.541Z,16.30
2018-02-16T19:04:39.528Z,15.68
2018-02-16T19:07:08.818Z,15.98
2018-02-16T19:09:44.549Z,15.38
2018-02-16T19:15:36.853Z,16.25
2018-02-16T19:18:16.138Z,15.38
2018-02-16T19:20:45.879Z,14.63
2018-02-16T19:23:15.637Z,16.33
2018-02-16T19:26:14.841Z,14.70
2018-02-16T19:28:44.630Z,15.02
2018-02-16T19:31:13.606Z,14.57
2018-02-16T19:33:42.993Z,13.95
2018-02-16T19:36:15.085Z,14.32
2018-02-16T19:38:46.896Z,14.87
2018-02-16T19:41:29.386Z,15.27
2018-02-16T19:43:58.839Z,16.58
2018-02-16T19:46:34.095Z,14.93
2018-02-16T19:49:06.028Z,15.40
2018-02-16T19:51:35.807Z,15.00
2018-02-16T19:54:04.830Z,15.32
2018-02-16T19:56:34.546Z,14.80
2018-02-16T19:59:04.611Z,17.77
2018-02-16T20:01:33.629Z,17.02
2018-02-16T20:04:06.422Z,15.70
2018-02-16T20:06:36.498Z,15.25
2018-02-16T20:09:06.921Z,14.25
2018-02-16T20:11:41.791Z,14.85
2018-02-16T20:14:14.950Z,15.52
2018-02-16T20:16:51.177Z,16.10
2018-02-16T20:19:34.671Z,15.55
2018-02-16T20:22:09.294Z,16.40
2018-02-16T20:24:54.693Z,16.20
2018-02-16T20:27:27.406Z,15.80
2018-02-16T20:29:58.585Z,16.25
2018-02-16T20:32:39.132Z,19.75
2018-02-16T20:35:11.317Z,19.02
2018-02-16T20:41:04.603Z,16.60
2018-02-16T20:43:49.147Z,16.20
2018-02-16T20:46:37.424Z,18.33
2018-02-16T20:49:16.926Z,18.77
2018-02-16T20:51:58.110Z,18.83
2018-02-16T20:57:50.930Z,18.08
2018-02-16T21:00:29.737Z,19.85
2018-02-16T21:03:09.154Z,19.62
2018-02-16T21:05:50.248Z,19.48
2018-02-16T21:08:27.010Z,20.60
2018-02-16T21:11:05.803Z,21.05
2018-02-16T21:13:48.162Z,19.65
2018-02-16T21:19:14.160Z,17.83
2018-02-16T21:21:47.071Z,19.85
2018-02-16T21:26:54.617Z,20.37
2018-02-16T21:29:24.441Z,21.17
2018-02-16T21:31:53.431Z,18.62
2018-02-16T21:34:23.122Z,19.80
2018-02-16T21:36:52.164Z,18.30
2018-02-16T21:39:21.294Z,19.60
2018-02-16T21:41:51.025Z,18.52
2018-02-16T21:44:20.103Z,17.52
2018-02-16T21:46:53.370Z,19.17
2018-02-16T21:49:26.061Z,18.33
2018-02-16T21:51:56.030Z,20.00
2018-02-16T21:54:25.576Z,18.33
2018-02-16T21:56:56.974Z,17.48
2018-02-16T21:59:37.380Z,16.27
2018-02-16T22:02:21.547Z,19.55
2018-02-16T22:05:02.004Z,17.35
2018-02-16T22:07:32.818Z,17.50
2018-02-16T22:10:05.857Z,16.80
2018-02-16T22:12:35.977Z,16.83
2018-02-16T22:15:05.832Z,16.33
2018-02-16T22:17:42.251Z,15.90
2018-02-16T22:20:15.122Z,15.43
2018-02-16T22:22:49.967Z,15.35
2018-02-16T22:25:24.225Z,16.20
2018-02-16T22:27:53.551Z,14.87
2018-02-16T22:30:22.562Z,16.65
2018-02-16T22:32:53.947Z,20.37
2018-02-16T22:35:24.345Z,18.00
2018-02-16T22:37:59.010Z,17.50
2018-02-16T22:40:29.353Z,18.85
2018-02-16T22:42:59.327Z,17.02
2018-02-16T22:45:29.438Z,19.58
2018-02-16T22:48:05.872Z,29.02
2018-02-16T22:50:37.023Z,29.92
2018-02-16T22:53:07.058Z,31.95
2018-02-16T22:55:37.049Z,25.67
2018-02-16T22:58:13.085Z,28.58
2018-02-16T23:00:43.667Z,27.08
2018-02-16T23:03:17.729Z,24.23
2018-02-16T23:05:46.918Z,24.05
2018-02-16T23:08:21.307Z,15.98
2018-02-16T23:10:55.225Z,15.80
2018-02-16T23:13:37.162Z,15.02
2018-02-16T23:16:11.544Z,14.40
2018-02-16T23:18:41.949Z,14.18
2018-02-16T23:21:14.404Z,15.05
2018-02-16T23:23:50.235Z,14.90
2018-02-16T23:26:20.889Z,14.15
2018-02-16T23:29:03.385Z,13.90
2018-02-16T23:31:38.423Z,14.68
2018-02-16T23:34:15.865Z,12.82
2018-02-16T23:36:48.418Z,12.40
2018-02-16T23:39:23.430Z,12.52
2018-02-16T23:41:57.971Z,15.30
2018-02-16T23:44:34.325Z,16.55
2018-02-16T23:47:07.094Z,19.05
2018-02-16T23:49:39.952Z,22.02
2018-02-16T23:52:23.776Z,23.02
2018-02-16T23:55:02.534Z,20.62
2018-02-16T23:57:37.960Z,19.70
